Destinations Molde Airport

Molde Airport (ENML / MOL)

Flights to Molde Airport

Flight number From ETE Dispatch
SPY-3103 ENVA Trondheim Airport Værnes 00:50
SPY-3104 ENFL Florø Airport 00:55

Flights from Molde Airport

Flight number To ETE Dispatch
SPY-3103 ENFL Florø Airport 00:55
SPY-3104 ENVA Trondheim Airport Værnes 00:50
About

Molde Airport facts

Molde Airport is located in Molde at an elevation of 3.0 meters or 10 feet.

Currently, Speedy Airlines serves 4 flights to and from Molde Airport.

Detailed airport info

Route map

Weather

Current weather

METAR

METAR

Metar data retrieved Sunday, 21 July 2024 at 20:25 UTC

ENML 211950Z AUTO 29014KT 9999NDV BKN092/// 19/15 Q1005
Wind Temperature
14 kt 19c